createdAt,value
2023-05-05T00:02:12.159Z,2.96
2023-05-05T00:04:38.709Z,2.81
2023-05-05T00:07:05.284Z,2.65
2023-05-05T00:09:31.781Z,2.79
2023-05-05T00:11:58.253Z,2.90
2023-05-05T00:14:24.728Z,2.82
2023-05-05T00:16:51.254Z,2.78
2023-05-05T00:19:17.855Z,2.69
2023-05-05T00:21:44.425Z,2.79
2023-05-05T00:24:10.971Z,2.65
2023-05-05T00:26:37.445Z,2.93
2023-05-05T00:29:03.930Z,2.87
2023-05-05T00:31:30.598Z,2.81
2023-05-05T00:33:57.132Z,2.86
2023-05-05T00:36:23.739Z,3.03
2023-05-05T00:38:50.227Z,2.67
2023-05-05T00:41:19.715Z,2.87
2023-05-05T00:43:46.218Z,2.78
2023-05-05T00:46:33.954Z,2.96
2023-05-05T00:49:00.934Z,2.75
2023-05-05T00:51:28.805Z,2.71
2023-05-05T00:53:55.699Z,2.63
2023-05-05T00:56:22.292Z,2.68
2023-05-05T00:58:49.350Z,2.53
2023-05-05T01:01:17.632Z,2.64
2023-05-05T01:03:44.583Z,2.67
2023-05-05T01:06:26.335Z,2.73
2023-05-05T01:09:08.763Z,2.63
2023-05-05T01:11:54.811Z,2.67
2023-05-05T01:15:10.118Z,2.79
2023-05-05T01:17:43.301Z,2.70
2023-05-05T01:20:17.551Z,2.80
2023-05-05T01:22:53.353Z,2.85
2023-05-05T01:25:56.574Z,2.48
2023-05-05T01:29:12.179Z,2.62
2023-05-05T01:31:44.383Z,2.82
2023-05-05T01:34:16.560Z,2.79
2023-05-05T01:36:55.409Z,2.63
2023-05-05T01:39:27.535Z,2.93
2023-05-05T01:41:57.796Z,2.59
2023-05-05T01:44:24.801Z,2.81
2023-05-05T01:46:52.992Z,2.76
2023-05-05T01:49:20.002Z,2.85
2023-05-05T01:51:48.781Z,2.80
2023-05-05T01:54:18.360Z,2.76
2023-05-05T01:56:48.101Z,2.72
2023-05-05T01:59:15.945Z,2.68
2023-05-05T02:01:45.558Z,2.71
2023-05-05T02:04:14.839Z,2.87
2023-05-05T02:06:44.240Z,2.65
2023-05-05T02:09:13.928Z,2.77
2023-05-05T02:11:41.157Z,2.83
2023-05-05T02:14:10.212Z,2.95
2023-05-05T02:16:42.210Z,2.85
2023-05-05T02:19:11.890Z,2.86
2023-05-05T02:21:38.772Z,2.75
2023-05-05T02:24:05.980Z,2.99
2023-05-05T02:26:36.355Z,2.95
2023-05-05T02:29:12.637Z,2.88
2023-05-05T02:31:46.410Z,3.03
2023-05-05T02:34:21.068Z,2.79
2023-05-05T02:36:52.582Z,2.96
2023-05-05T02:39:35.252Z,2.96
2023-05-05T02:42:04.859Z,2.89
2023-05-05T02:44:33.538Z,2.88
2023-05-05T02:47:02.297Z,2.71
2023-05-05T02:49:28.952Z,2.84
2023-05-05T02:51:55.490Z,2.89
2023-05-05T02:54:22.080Z,2.74
2023-05-05T02:56:53.492Z,2.71
2023-05-05T02:59:51.277Z,2.72
2023-05-05T03:02:43.311Z,2.82
2023-05-05T03:05:16.929Z,2.84
2023-05-05T03:08:02.166Z,2.85
2023-05-05T03:10:43.903Z,2.79
2023-05-05T03:13:14.302Z,2.83
2023-05-05T03:15:47.694Z,2.84
2023-05-05T03:18:14.879Z,2.84
2023-05-05T03:20:42.696Z,2.89
2023-05-05T03:23:09.422Z,2.85
2023-05-05T03:25:47.192Z,3.01
2023-05-05T03:28:14.905Z,3.00
2023-05-05T03:30:42.579Z,2.88
2023-05-05T03:33:10.661Z,2.83
2023-05-05T03:35:37.379Z,2.99
2023-05-05T03:38:03.856Z,3.08
2023-05-05T03:40:43.005Z,2.87
2023-05-05T03:43:11.044Z,2.90
2023-05-05T03:45:37.584Z,2.97
2023-05-05T03:48:04.428Z,3.00
2023-05-05T03:50:30.893Z,3.04
2023-05-05T03:52:57.346Z,3.03
2023-05-05T03:55:23.884Z,3.01
2023-05-05T03:57:50.401Z,3.05
2023-05-05T04:00:17.269Z,2.92
2023-05-05T04:02:43.991Z,2.88
2023-05-05T04:05:10.566Z,3.02
2023-05-05T04:07:37.085Z,2.97
2023-05-05T04:10:03.731Z,3.06
2023-05-05T04:12:30.335Z,2.87
2023-05-05T04:14:56.900Z,3.20
2023-05-05T04:17:26.509Z,3.17
2023-05-05T04:19:52.987Z,3.22
2023-05-05T04:22:19.460Z,3.18
2023-05-05T04:24:45.973Z,3.14
2023-05-05T04:27:12.417Z,3.01
2023-05-05T04:29:38.942Z,3.10
2023-05-05T04:32:05.708Z,3.32
2023-05-05T04:34:32.239Z,3.37
2023-05-05T04:36:58.763Z,3.35
2023-05-05T04:39:25.261Z,3.31
2023-05-05T04:41:51.999Z,3.58
2023-05-05T04:44:18.486Z,3.47
2023-05-05T04:46:45.070Z,3.29
2023-05-05T04:49:11.572Z,3.36
2023-05-05T04:51:41.756Z,3.23
2023-05-05T04:54:08.507Z,3.24
2023-05-05T04:56:35.029Z,3.47
2023-05-05T04:59:01.507Z,3.62
2023-05-05T05:01:28.054Z,3.60
2023-05-05T05:03:54.603Z,3.33
2023-05-05T05:06:21.173Z,3.37
2023-05-05T05:08:47.629Z,3.36
2023-05-05T05:11:14.163Z,3.19
2023-05-05T05:13:40.665Z,3.52
2023-05-05T05:16:07.447Z,3.23
2023-05-05T05:18:33.955Z,3.26
2023-05-05T05:21:00.431Z,3.41
2023-05-05T05:23:26.933Z,3.42
2023-05-05T05:25:53.525Z,3.53
2023-05-05T05:28:20.063Z,3.56
2023-05-05T05:30:46.695Z,3.74
2023-05-05T05:33:13.437Z,3.84
2023-05-05T05:35:40.114Z,3.35
2023-05-05T05:38:06.649Z,3.47
2023-05-05T05:40:33.112Z,3.80
2023-05-05T05:42:59.716Z,3.91
2023-05-05T05:45:26.237Z,3.71
2023-05-05T05:47:52.761Z,3.71
2023-05-05T05:50:19.329Z,3.93
2023-05-05T05:52:46.084Z,3.63
2023-05-05T05:55:12.640Z,3.95
2023-05-05T05:57:39.148Z,4.13
2023-05-05T06:00:06.272Z,3.85
2023-05-05T06:02:32.920Z,4.23
2023-05-05T06:04:59.480Z,4.22
2023-05-05T06:07:25.953Z,3.85
2023-05-05T06:09:52.444Z,4.17
2023-05-05T06:12:18.924Z,4.30
2023-05-05T06:14:45.428Z,4.45
2023-05-05T06:17:11.927Z,4.81
2023-05-05T06:19:39.449Z,4.89
2023-05-05T06:22:06.009Z,4.49
2023-05-05T06:24:32.735Z,4.83
2023-05-05T06:26:59.300Z,4.90
2023-05-05T06:29:26.253Z,4.84
2023-05-05T06:31:52.888Z,5.18
2023-05-05T06:34:19.908Z,5.36
2023-05-05T06:36:46.455Z,6.05
2023-05-05T06:39:15.278Z,5.50
2023-05-05T06:41:42.506Z,5.56
2023-05-05T06:44:08.996Z,4.45
2023-05-05T06:46:35.632Z,4.22
2023-05-05T06:49:02.226Z,4.50
2023-05-05T06:51:29.780Z,4.53
2023-05-05T06:53:56.256Z,4.12
2023-05-05T06:56:22.724Z,4.37
2023-05-05T06:58:49.313Z,4.31
2023-05-05T07:01:15.884Z,4.53
2023-05-05T07:03:45.654Z,4.53
2023-05-05T07:06:12.161Z,4.51
2023-05-05T07:08:38.649Z,4.12
2023-05-05T07:11:05.138Z,4.52
2023-05-05T07:13:31.615Z,4.87
2023-05-05T07:15:58.141Z,4.21
2023-05-05T07:18:24.598Z,3.96
2023-05-05T07:20:51.069Z,3.83
2023-05-05T07:23:17.535Z,3.85
2023-05-05T07:25:44.265Z,3.93
2023-05-05T07:28:11.435Z,3.82
2023-05-05T07:30:37.965Z,4.06
2023-05-05T07:33:04.553Z,3.85
2023-05-05T07:35:31.081Z,3.95
2023-05-05T07:37:57.612Z,3.85
2023-05-05T07:40:24.167Z,3.96
2023-05-05T07:42:50.721Z,4.03
2023-05-05T07:45:17.395Z,4.58
2023-05-05T07:47:43.961Z,4.23
2023-05-05T07:50:10.821Z,3.84
2023-05-05T07:52:44.963Z,4.27
2023-05-05T07:55:14.954Z,3.88
2023-05-05T07:57:41.445Z,4.13
2023-05-05T08:00:08.624Z,4.10
2023-05-05T08:02:35.782Z,4.05
2023-05-05T08:05:02.433Z,3.92
2023-05-05T08:07:28.930Z,3.98
2023-05-05T08:09:55.492Z,4.10
2023-05-05T08:12:22.006Z,4.12
2023-05-05T08:14:48.512Z,4.56
2023-05-05T08:17:14.983Z,4.30
2023-05-05T08:19:41.459Z,4.01
2023-05-05T08:22:08.034Z,4.15
2023-05-05T08:24:37.080Z,4.19
2023-05-05T08:27:03.666Z,3.98
2023-05-05T08:29:30.186Z,3.86
2023-05-05T08:39:32.994Z,4.18
2023-05-05T08:41:59.868Z,4.27
2023-05-05T08:44:26.397Z,4.00
2023-05-05T08:46:54.034Z,4.05
2023-05-05T08:49:22.440Z,4.38
2023-05-05T08:51:52.327Z,4.40
2023-05-05T08:54:23.443Z,3.66
2023-05-05T08:56:50.413Z,2.55
2023-05-05T08:59:18.865Z,2.54
2023-05-05T09:01:46.230Z,2.84
2023-05-05T09:04:12.835Z,2.60
2023-05-05T09:06:40.190Z,2.26
2023-05-05T09:09:06.924Z,2.40
2023-05-05T09:11:34.981Z,2.37
2023-05-05T09:14:01.541Z,2.45
2023-05-05T09:16:28.120Z,3.08
2023-05-05T09:19:01.712Z,3.12
2023-05-05T09:21:28.275Z,2.78
2023-05-05T09:24:08.624Z,2.67
2023-05-05T09:26:38.398Z,2.83
2023-05-05T09:29:05.846Z,2.32
2023-05-05T09:31:34.042Z,2.39
2023-05-05T09:34:01.105Z,2.51
2023-05-05T09:36:47.458Z,2.73
2023-05-05T09:39:16.961Z,2.58
2023-05-05T09:41:44.396Z,2.67
2023-05-05T09:44:12.411Z,2.85
2023-05-05T09:46:50.761Z,3.14
2023-05-05T09:49:20.133Z,2.54
2023-05-05T09:51:47.551Z,2.52
2023-05-05T09:54:28.159Z,2.65
2023-05-05T09:56:56.308Z,2.72
2023-05-05T09:59:23.958Z,3.07
2023-05-05T10:01:51.711Z,2.71
2023-05-05T10:04:28.192Z,2.93
2023-05-05T10:06:58.649Z,2.47
2023-05-05T10:09:26.699Z,2.72
2023-05-05T10:11:53.728Z,2.58
2023-05-05T10:14:20.362Z,2.48
2023-05-05T10:16:49.628Z,2.52
2023-05-05T10:19:18.913Z,2.39
2023-05-05T10:22:03.400Z,2.88
2023-05-05T10:24:48.877Z,2.73
2023-05-05T10:27:19.942Z,2.37
2023-05-05T10:30:03.253Z,2.27
2023-05-05T10:35:25.141Z,2.10
2023-05-05T10:37:53.084Z,2.16
2023-05-05T10:40:24.617Z,2.10
2023-05-05T10:42:53.919Z,2.25
2023-05-05T10:45:20.733Z,2.29
2023-05-05T10:47:49.458Z,2.14
2023-05-05T10:50:28.863Z,1.98
2023-05-05T10:53:26.792Z,2.28
2023-05-05T10:55:57.126Z,2.37
2023-05-05T10:58:51.335Z,2.24
2023-05-05T11:01:48.856Z,2.43
2023-05-05T11:04:20.015Z,2.38
2023-05-05T11:07:08.486Z,2.47
2023-05-05T11:09:36.750Z,2.31
2023-05-05T11:12:05.260Z,2.53
2023-05-05T11:14:32.934Z,2.55
2023-05-05T11:16:59.585Z,2.27
2023-05-05T11:19:47.137Z,2.33
2023-05-05T11:22:14.180Z,2.23
2023-05-05T11:24:40.735Z,2.35
2023-05-05T11:27:07.590Z,2.68
2023-05-05T11:30:06.316Z,2.38
2023-05-05T11:32:32.941Z,2.44
2023-05-05T11:35:01.156Z,2.23
2023-05-05T11:37:28.869Z,2.26
2023-05-05T11:40:13.207Z,2.48
2023-05-05T11:42:39.884Z,2.73
2023-05-05T11:45:21.139Z,3.05
2023-05-05T11:47:47.706Z,3.29
2023-05-05T11:50:19.223Z,4.22
2023-05-05T11:52:47.064Z,5.39
2023-05-05T11:55:19.546Z,4.25
2023-05-05T11:57:46.107Z,3.89
2023-05-05T12:00:13.131Z,4.32
2023-05-05T12:02:39.745Z,4.91
2023-05-05T12:05:06.738Z,5.12
2023-05-05T12:07:33.778Z,4.02
2023-05-05T12:10:00.400Z,3.63
2023-05-05T12:12:37.554Z,3.04
2023-05-05T12:15:05.313Z,2.95
2023-05-05T12:17:38.489Z,2.63
2023-05-05T12:20:05.786Z,2.64
2023-05-05T12:22:32.411Z,2.62
2023-05-05T12:25:01.542Z,2.55
2023-05-05T12:27:31.157Z,2.54
2023-05-05T12:30:12.056Z,2.55
2023-05-05T12:32:38.671Z,2.36
2023-05-05T12:35:07.110Z,2.36
2023-05-05T12:37:34.617Z,2.51
2023-05-05T12:40:01.140Z,2.48
2023-05-05T12:42:30.446Z,2.43
2023-05-05T12:44:57.156Z,2.32
2023-05-05T12:47:31.091Z,2.43
2023-05-05T12:49:58.013Z,2.44
2023-05-05T12:52:24.587Z,2.71
2023-05-05T12:54:59.295Z,2.79
2023-05-05T12:57:26.329Z,2.78
2023-05-05T12:59:53.482Z,2.66
2023-05-05T13:02:20.941Z,2.59
2023-05-05T13:04:53.034Z,2.46
2023-05-05T13:07:21.769Z,2.41
2023-05-05T13:09:49.958Z,2.87
2023-05-05T13:12:20.105Z,3.01
2023-05-05T13:14:46.929Z,2.65
2023-05-05T13:17:14.327Z,2.89
2023-05-05T13:19:41.145Z,2.71
2023-05-05T13:22:08.617Z,2.36
2023-05-05T13:24:49.693Z,2.36
2023-05-05T13:27:17.010Z,2.33
2023-05-05T13:29:43.573Z,2.58
2023-05-05T13:32:10.293Z,2.43
2023-05-05T13:34:36.858Z,2.39
2023-05-05T13:37:03.458Z,2.31
2023-05-05T13:39:30.022Z,2.07
2023-05-05T13:41:56.584Z,2.42
2023-05-05T13:44:23.117Z,2.15
2023-05-05T13:46:49.622Z,2.18
2023-05-05T13:49:16.219Z,2.42
2023-05-05T13:51:43.996Z,2.26
2023-05-05T13:54:10.542Z,2.39
2023-05-05T13:56:37.142Z,2.32
2023-05-05T13:59:06.465Z,2.16
2023-05-05T14:01:33.063Z,2.18
2023-05-05T14:04:00.488Z,2.11
2023-05-05T14:06:28.890Z,2.21
2023-05-05T14:08:55.432Z,2.32
2023-05-05T14:11:22.292Z,2.17
2023-05-05T14:13:48.837Z,2.33
2023-05-05T14:16:15.734Z,2.23
2023-05-05T14:18:42.503Z,2.03
2023-05-05T14:21:09.107Z,2.15
2023-05-05T14:23:35.860Z,2.41
2023-05-05T14:26:02.704Z,2.30
2023-05-05T14:28:29.549Z,2.38
2023-05-05T14:30:56.241Z,2.33
2023-05-05T14:33:25.775Z,2.41
2023-05-05T14:35:52.506Z,2.63
2023-05-05T14:38:19.035Z,2.12
2023-05-05T14:40:53.127Z,2.18
2023-05-05T14:43:25.207Z,2.04
2023-05-05T14:45:51.839Z,2.03
2023-05-05T14:48:18.622Z,2.06
2023-05-05T14:50:45.371Z,2.11
2023-05-05T14:53:11.903Z,2.12
2023-05-05T14:55:38.473Z,1.93
2023-05-05T14:58:05.074Z,2.04
2023-05-05T15:00:31.570Z,2.15
2023-05-05T15:02:58.204Z,1.97
2023-05-05T15:05:24.767Z,2.11
2023-05-05T15:07:51.516Z,2.06
2023-05-05T15:10:21.104Z,2.15
2023-05-05T15:12:48.659Z,2.19
2023-05-05T15:15:15.374Z,2.29
2023-05-05T15:17:42.032Z,2.35
2023-05-05T15:20:08.962Z,2.33
2023-05-05T15:22:35.648Z,2.44
2023-05-05T15:25:02.290Z,2.16
2023-05-05T15:27:28.992Z,2.13
2023-05-05T15:29:58.304Z,2.08
2023-05-05T15:32:24.911Z,2.20
2023-05-05T15:34:51.519Z,2.11
2023-05-05T15:37:18.017Z,2.20
2023-05-05T15:39:44.556Z,2.08
2023-05-05T15:42:11.170Z,2.01
2023-05-05T15:44:37.810Z,2.28
2023-05-05T15:47:04.815Z,2.18
2023-05-05T15:49:31.435Z,2.18
2023-05-05T15:51:58.228Z,2.10
2023-05-05T15:54:24.757Z,2.22
2023-05-05T15:56:51.214Z,2.22
2023-05-05T15:59:19.026Z,2.18
2023-05-05T16:01:45.943Z,2.21
2023-05-05T16:04:12.540Z,2.17
2023-05-05T16:06:39.121Z,2.28
2023-05-05T16:09:05.605Z,2.16
2023-05-05T16:11:32.161Z,2.37
2023-05-05T16:13:58.755Z,2.49
2023-05-05T16:16:25.296Z,2.48
2023-05-05T16:18:51.786Z,2.69
2023-05-05T16:21:18.284Z,2.85
2023-05-05T16:23:44.808Z,2.52
2023-05-05T16:26:11.362Z,2.50
2023-05-05T16:28:38.067Z,2.44
2023-05-05T16:31:04.736Z,2.53
2023-05-05T16:33:31.330Z,2.64
2023-05-05T16:35:57.927Z,2.51
2023-05-05T16:38:24.439Z,2.60
2023-05-05T16:40:51.102Z,2.98
2023-05-05T16:43:17.916Z,2.85
2023-05-05T16:45:44.424Z,2.68
2023-05-05T16:48:11.006Z,2.88
2023-05-05T16:50:37.552Z,2.83
2023-05-05T16:53:04.085Z,2.91
2023-05-05T16:55:30.621Z,2.84
2023-05-05T16:57:57.171Z,2.68
2023-05-05T17:00:23.748Z,2.68
2023-05-05T17:02:50.330Z,2.87
2023-05-05T17:05:17.015Z,2.55
2023-05-05T17:07:43.554Z,2.50
2023-05-05T17:10:10.296Z,2.51
2023-05-05T17:12:36.806Z,2.58
2023-05-05T17:15:03.667Z,2.48
2023-05-05T17:17:30.233Z,2.62
2023-05-05T17:19:56.765Z,2.49
2023-05-05T17:22:23.238Z,2.69
2023-05-05T17:24:49.708Z,2.89
2023-05-05T17:27:16.909Z,2.69
2023-05-05T17:29:43.722Z,2.45
2023-05-05T17:32:10.451Z,2.87
2023-05-05T17:34:37.085Z,2.86
2023-05-05T17:37:03.592Z,2.90
2023-05-05T17:39:30.124Z,2.80
2023-05-05T17:41:56.654Z,2.69
2023-05-05T17:44:23.220Z,2.73
2023-05-05T17:46:49.791Z,2.62
2023-05-05T17:49:16.297Z,2.55
2023-05-05T17:51:42.854Z,2.80
2023-05-05T17:54:09.309Z,2.61
2023-05-05T17:56:35.763Z,2.52
2023-05-05T17:59:02.337Z,2.66
2023-05-05T18:01:28.949Z,3.05
2023-05-05T18:03:55.571Z,3.32
2023-05-05T18:06:22.058Z,3.23
2023-05-05T18:08:48.556Z,2.82
2023-05-05T18:11:15.102Z,2.76
2023-05-05T18:13:42.767Z,3.08
2023-05-05T18:16:09.266Z,3.20
2023-05-05T18:18:35.822Z,3.63
2023-05-05T18:21:02.370Z,3.59
2023-05-05T18:23:28.883Z,3.32
2023-05-05T18:25:55.406Z,3.34
2023-05-05T18:28:21.983Z,3.34
2023-05-05T18:30:48.556Z,3.11
2023-05-05T18:33:15.219Z,3.09
2023-05-05T18:35:41.774Z,3.34
2023-05-05T18:38:08.324Z,3.28
2023-05-05T18:40:35.037Z,3.43
2023-05-05T18:43:01.638Z,3.21
2023-05-05T18:45:28.329Z,3.74
2023-05-05T18:47:54.991Z,3.68
2023-05-05T18:50:21.819Z,3.72
2023-05-05T18:52:48.310Z,3.58
2023-05-05T18:55:15.162Z,3.42
2023-05-05T18:57:41.700Z,3.76
2023-05-05T19:00:09.625Z,3.53
2023-05-05T19:02:36.295Z,3.42
2023-05-05T19:05:03.080Z,3.64
2023-05-05T19:07:35.283Z,3.47
2023-05-05T19:10:04.555Z,3.48
2023-05-05T19:12:31.165Z,3.73
2023-05-05T19:14:57.761Z,3.66
2023-05-05T19:17:24.752Z,3.40
2023-05-05T19:19:51.355Z,3.29
2023-05-05T19:22:20.549Z,3.43
2023-05-05T19:24:47.082Z,3.58
2023-05-05T19:27:16.407Z,3.49
2023-05-05T19:29:43.495Z,3.26
2023-05-05T19:32:10.177Z,2.99
2023-05-05T19:34:36.797Z,3.14
2023-05-05T19:37:03.297Z,3.53
2023-05-05T19:39:29.826Z,3.59
2023-05-05T19:41:56.444Z,3.39
2023-05-05T19:44:23.002Z,3.30
2023-05-05T19:46:49.490Z,3.31
2023-05-05T19:49:16.062Z,3.35
2023-05-05T19:51:42.533Z,3.14
2023-05-05T19:54:09.072Z,3.14
2023-05-05T19:56:35.551Z,3.65
2023-05-05T19:59:03.057Z,3.97
2023-05-05T20:01:30.035Z,4.42
2023-05-05T20:03:56.996Z,4.20
2023-05-05T20:06:23.639Z,4.18
2023-05-05T20:08:50.403Z,4.05
2023-05-05T20:11:17.060Z,3.88
2023-05-05T20:13:43.986Z,4.29
2023-05-05T20:16:11.538Z,4.29
2023-05-05T20:18:38.282Z,4.45
2023-05-05T20:21:04.762Z,4.68
2023-05-05T20:23:31.270Z,4.87
2023-05-05T20:25:57.781Z,4.58
2023-05-05T20:28:24.390Z,4.57
2023-05-05T20:30:50.878Z,4.58
2023-05-05T20:33:17.409Z,5.10
2023-05-05T20:35:43.915Z,4.90
2023-05-05T20:38:10.387Z,4.74
2023-05-05T20:40:36.891Z,4.26
2023-05-05T20:43:03.422Z,4.09
2023-05-05T20:45:29.949Z,4.30
2023-05-05T20:47:56.504Z,4.48
2023-05-05T20:50:23.041Z,4.25
2023-05-05T20:52:49.653Z,4.12
2023-05-05T20:55:16.135Z,4.07
2023-05-05T20:57:42.651Z,4.13
2023-05-05T21:00:09.828Z,4.25
2023-05-05T21:02:36.938Z,4.14
2023-05-05T21:05:03.777Z,4.18
2023-05-05T21:07:48.924Z,4.16
2023-05-05T21:10:34.120Z,4.23
2023-05-05T21:13:19.402Z,4.06
2023-05-05T21:15:45.962Z,4.04
2023-05-05T21:18:12.594Z,4.11
2023-05-05T21:20:39.105Z,3.88
2023-05-05T21:23:05.581Z,4.01
2023-05-05T21:25:32.181Z,3.74
2023-05-05T21:27:58.724Z,3.72
2023-05-05T21:30:25.305Z,3.81
2023-05-05T21:33:10.532Z,3.55
2023-05-05T21:35:55.648Z,3.52
2023-05-05T21:38:40.967Z,3.95
2023-05-05T21:41:07.538Z,3.97
2023-05-05T21:43:52.788Z,4.20
2023-05-05T21:46:37.721Z,4.34
2023-05-05T21:49:23.195Z,4.29
2023-05-05T21:52:08.209Z,3.98
2023-05-05T21:54:53.231Z,4.01
2023-05-05T21:57:38.332Z,3.91
2023-05-05T22:00:05.196Z,3.70
2023-05-05T22:02:32.344Z,3.40
2023-05-05T22:04:58.896Z,3.57
2023-05-05T22:07:25.594Z,3.68
2023-05-05T22:09:52.200Z,3.78
2023-05-05T22:12:18.686Z,4.01
2023-05-05T22:14:45.200Z,3.85
2023-05-05T22:17:11.701Z,3.43
2023-05-05T22:19:38.214Z,3.75
2023-05-05T22:22:04.687Z,3.61
2023-05-05T22:24:31.970Z,3.66
2023-05-05T22:26:58.620Z,3.79
2023-05-05T22:29:25.158Z,3.60
2023-05-05T22:31:51.819Z,3.39
2023-05-05T22:34:18.439Z,3.73
2023-05-05T22:36:44.917Z,3.60
2023-05-05T22:39:11.450Z,3.97
2023-05-05T22:41:37.925Z,3.68
2023-05-05T22:44:04.513Z,3.99
2023-05-05T22:46:31.227Z,3.82
2023-05-05T22:48:57.837Z,3.86
2023-05-05T22:51:24.359Z,3.42
2023-05-05T22:53:50.928Z,3.79
2023-05-05T22:56:17.461Z,3.68
2023-05-05T22:58:44.128Z,3.98
2023-05-05T23:01:10.955Z,3.71
2023-05-05T23:03:37.563Z,3.24
2023-05-05T23:06:04.059Z,3.44
2023-05-05T23:08:30.610Z,3.72
2023-05-05T23:10:57.149Z,3.53
2023-05-05T23:13:23.708Z,3.49
2023-05-05T23:15:50.289Z,3.59
2023-05-05T23:18:16.774Z,3.39
2023-05-05T23:20:43.986Z,3.43
2023-05-05T23:23:10.510Z,7.15
2023-05-05T23:25:36.998Z,5.48
2023-05-05T23:28:03.645Z,4.16
2023-05-05T23:30:30.198Z,4.19
2023-05-05T23:32:56.743Z,3.68
2023-05-05T23:35:24.056Z,3.76
2023-05-05T23:37:50.514Z,3.56
2023-05-05T23:40:17.113Z,3.49
2023-05-05T23:42:43.627Z,3.24
2023-05-05T23:45:10.652Z,3.57
2023-05-05T23:47:38.668Z,3.61
2023-05-05T23:50:05.575Z,3.58
2023-05-05T23:52:32.046Z,3.72
2023-05-05T23:54:58.501Z,3.80
2023-05-05T23:57:24.973Z,3.70
2023-05-05T23:59:51.452Z,3.59
